ARG2439 LIMP-LIBC
Flight info
| Callsign | ARG2439 |
|---|---|
| Flight time | 1h 18m |
| Altitude | 19000 |
| Route | LUPOS L995 TEA M736 SOR M620 ARBUM |
| Aircraft | B737/M-SDE2E3FGHIRWXY/LB1 |
Departure
| Time | 2026-04-23 14:42 |
|---|---|
| Airport | Parma Airport (LIMP) |
Arrival
| Time | 2026-04-23 16:01 |
|---|---|
| Airport | Crotone Sant'Anna Pythagoras Airport (LIBC) |
| Time | Latitude | Longitude | Altitude | Speed | Heading |
|---|---|---|---|---|---|
| 2026-04-23 14:30 | 44.81987 | 10.29754 | 164 ft | 0 kts | 149° |
| 2026-04-23 14:38 | 44.81998 | 10.29744 | 165 ft | 4 kts | 224° |
| 2026-04-23 14:38 | 44.81999 | 10.29769 | 163 ft | 3 kts | 285° |
| 2026-04-23 14:39 | 44.81997 | 10.29780 | 162 ft | 0 kts | 287° |
| 2026-04-23 14:40 | 44.82001 | 10.29740 | 165 ft | 6 kts | 266° |
| 2026-04-23 14:41 | 44.81987 | 10.29685 | 166 ft | 6 kts | 241° |
| 2026-04-23 14:41 | 44.81959 | 10.29612 | 166 ft | 15 kts | 243° |
| 2026-04-23 14:41 | 44.81908 | 10.29472 | 168 ft | 16 kts | 244° |
| 2026-04-23 14:41 | 44.81997 | 10.29416 | 168 ft | 38 kts | 15° |
| 2026-04-23 14:42 | 44.82503 | 10.29638 | 163 ft | 112 kts | 17° |
| 2026-04-23 14:42 | 44.83450 | 10.30045 | 205 ft | 166 kts | 17° |
| 2026-04-23 14:42 | 44.84563 | 10.30498 | 909 ft | 159 kts | 15° |
| 2026-04-23 14:42 | 44.85630 | 10.30915 | 1287 ft | 158 kts | 17° |
| 2026-04-23 14:43 | 44.86634 | 10.31377 | 1842 ft | 153 kts | 18° |
| 2026-04-23 14:43 | 44.87695 | 10.31775 | 2399 ft | 166 kts | 359° |
| 2026-04-23 14:43 | 44.88728 | 10.31056 | 2915 ft | 176 kts | 303° |
| 2026-04-23 14:43 | 44.88977 | 10.29378 | 3504 ft | 184 kts | 257° |
| 2026-04-23 14:44 | 44.88346 | 10.27816 | 4076 ft | 191 kts | 220° |
| 2026-04-23 14:44 | 44.87104 | 10.27141 | 4605 ft | 199 kts | 175° |
| 2026-04-23 14:44 | 44.85753 | 10.27659 | 5196 ft | 207 kts | 160° |
| 2026-04-23 14:44 | 44.84347 | 10.28314 | 5723 ft | 218 kts | 161° |
| 2026-04-23 14:45 | 44.82880 | 10.28968 | 6272 ft | 222 kts | 161° |
| 2026-04-23 14:45 | 44.81452 | 10.29872 | 6799 ft | 230 kts | 147° |
| 2026-04-23 14:45 | 44.80073 | 10.31124 | 7385 ft | 243 kts | 144° |
| 2026-04-23 14:45 | 44.78628 | 10.32496 | 7965 ft | 257 kts | 144° |
| 2026-04-23 14:46 | 44.77091 | 10.33945 | 8519 ft | 273 kts | 144° |
| 2026-04-23 14:46 | 44.75461 | 10.35466 | 9083 ft | 289 kts | 145° |
| 2026-04-23 14:46 | 44.73795 | 10.37003 | 9612 ft | 292 kts | 144° |
| 2026-04-23 14:46 | 44.72081 | 10.38571 | 10149 ft | 295 kts | 144° |
| 2026-04-23 14:47 | 44.70327 | 10.40170 | 10700 ft | 308 kts | 144° |
| 2026-04-23 14:47 | 44.68486 | 10.41845 | 11264 ft | 323 kts | 143° |
| 2026-04-23 14:47 | 44.66553 | 10.43603 | 11823 ft | 338 kts | 143° |
| 2026-04-23 14:47 | 44.64541 | 10.45428 | 12375 ft | 351 kts | 143° |
| 2026-04-23 14:48 | 44.62448 | 10.47322 | 12928 ft | 364 kts | 143° |
| 2026-04-23 14:48 | 44.60285 | 10.49279 | 13470 ft | 375 kts | 143° |
| 2026-04-23 14:48 | 44.58066 | 10.51283 | 14011 ft | 382 kts | 143° |
| 2026-04-23 14:48 | 44.55821 | 10.53305 | 14547 ft | 385 kts | 143° |
| 2026-04-23 14:49 | 44.53553 | 10.55348 | 15073 ft | 388 kts | 143° |
| 2026-04-23 14:49 | 44.51268 | 10.57407 | 15605 ft | 393 kts | 143° |
| 2026-04-23 14:49 | 44.48987 | 10.59455 | 16123 ft | 394 kts | 143° |
| 2026-04-23 14:49 | 44.46671 | 10.61520 | 16656 ft | 396 kts | 143° |
| 2026-04-23 14:50 | 44.44327 | 10.63603 | 17192 ft | 401 kts | 143° |
| 2026-04-23 14:50 | 44.41963 | 10.65702 | 17724 ft | 404 kts | 143° |
| 2026-04-23 14:50 | 44.39580 | 10.67816 | 18265 ft | 407 kts | 143° |
| 2026-04-23 14:50 | 44.37172 | 10.69952 | 18797 ft | 410 kts | 143° |
| 2026-04-23 14:51 | 44.34752 | 10.72097 | 19329 ft | 413 kts | 143° |
| 2026-04-23 14:51 | 44.32323 | 10.74248 | 19853 ft | 414 kts | 143° |
| 2026-04-23 14:51 | 44.29875 | 10.76416 | 20388 ft | 418 kts | 143° |
| 2026-04-23 14:51 | 44.27436 | 10.78573 | 20922 ft | 421 kts | 143° |
| 2026-04-23 14:52 | 44.24931 | 10.80785 | 21459 ft | 423 kts | 143° |
| 2026-04-23 14:52 | 44.22455 | 10.82967 | 21991 ft | 426 kts | 144° |
| 2026-04-23 14:52 | 44.19936 | 10.85183 | 22528 ft | 428 kts | 144° |
| 2026-04-23 14:52 | 44.17414 | 10.87400 | 23055 ft | 431 kts | 143° |
| 2026-04-23 14:53 | 44.14871 | 10.89634 | 23595 ft | 434 kts | 144° |
| 2026-04-23 14:53 | 44.12279 | 10.91909 | 24123 ft | 436 kts | 144° |
| 2026-04-23 14:53 | 44.09744 | 10.94132 | 24636 ft | 437 kts | 144° |
| 2026-04-23 14:53 | 44.07143 | 10.96411 | 25180 ft | 438 kts | 143° |
| 2026-04-23 14:54 | 44.04572 | 10.98661 | 25701 ft | 439 kts | 143° |
| 2026-04-23 14:54 | 44.02006 | 11.00878 | 26234 ft | 440 kts | 144° |
| 2026-04-23 14:54 | 43.99322 | 11.03015 | 26764 ft | 440 kts | 147° |
| 2026-04-23 14:54 | 43.96640 | 11.05044 | 27291 ft | 440 kts | 147° |
| 2026-04-23 14:55 | 43.93930 | 11.07060 | 27824 ft | 440 kts | 147° |
| 2026-04-23 14:55 | 43.91252 | 11.09052 | 28351 ft | 439 kts | 147° |
| 2026-04-23 14:55 | 43.88559 | 11.11067 | 28873 ft | 439 kts | 147° |
| 2026-04-23 14:55 | 43.85891 | 11.13073 | 29396 ft | 438 kts | 146° |
| 2026-04-23 14:56 | 43.83209 | 11.15098 | 29923 ft | 436 kts | 146° |
| 2026-04-23 14:56 | 43.80558 | 11.17103 | 30446 ft | 435 kts | 146° |
| 2026-04-23 14:56 | 43.77900 | 11.19114 | 30964 ft | 433 kts | 146° |
| 2026-04-23 14:56 | 43.75228 | 11.21136 | 31142 ft | 441 kts | 146° |
| 2026-04-23 14:57 | 43.69715 | 11.25305 | 31169 ft | 461 kts | 146° |
| 2026-04-23 14:57 | 43.64066 | 11.29552 | 31151 ft | 467 kts | 147° |
| 2026-04-23 14:58 | 43.58346 | 11.33839 | 31151 ft | 466 kts | 147° |
| 2026-04-23 14:58 | 43.52636 | 11.38130 | 31168 ft | 465 kts | 146° |
| 2026-04-23 14:59 | 43.47003 | 11.42395 | 31168 ft | 465 kts | 147° |
| 2026-04-23 14:59 | 43.41303 | 11.46583 | 31163 ft | 465 kts | 147° |
| 2026-04-23 15:00 | 43.35623 | 11.50792 | 31168 ft | 464 kts | 147° |
| 2026-04-23 15:00 | 43.29940 | 11.55019 | 31168 ft | 465 kts | 147° |
| 2026-04-23 15:01 | 43.24227 | 11.59253 | 31163 ft | 465 kts | 147° |
| 2026-04-23 15:01 | 43.18529 | 11.63462 | 31166 ft | 465 kts | 147° |
| 2026-04-23 15:02 | 43.12840 | 11.67663 | 31163 ft | 466 kts | 147° |
| 2026-04-23 15:02 | 43.07168 | 11.71844 | 31166 ft | 466 kts | 147° |
| 2026-04-23 15:03 | 43.01447 | 11.76053 | 31152 ft | 466 kts | 147° |
| 2026-04-23 15:03 | 42.95734 | 11.80246 | 31152 ft | 466 kts | 147° |
| 2026-04-23 15:04 | 42.90025 | 11.84429 | 31147 ft | 467 kts | 147° |
| 2026-04-23 15:04 | 42.84287 | 11.88624 | 31143 ft | 468 kts | 147° |
| 2026-04-23 15:05 | 42.78523 | 11.92813 | 31147 ft | 469 kts | 147° |
| 2026-04-23 15:05 | 42.72727 | 11.97007 | 31143 ft | 469 kts | 147° |
| 2026-04-23 15:06 | 42.66986 | 12.01157 | 31150 ft | 470 kts | 147° |
| 2026-04-23 15:06 | 42.61431 | 12.05751 | 31143 ft | 462 kts | 136° |
| 2026-04-23 15:07 | 42.57001 | 12.11875 | 31140 ft | 454 kts | 126° |
| 2026-04-23 15:07 | 42.52824 | 12.18283 | 31131 ft | 455 kts | 126° |
| 2026-04-23 15:08 | 42.48606 | 12.24668 | 31125 ft | 454 kts | 127° |
| 2026-04-23 15:09 | 42.42245 | 12.34170 | 31129 ft | 454 kts | 127° |
| 2026-04-23 15:09 | 42.37991 | 12.40496 | 31129 ft | 454 kts | 127° |
| 2026-04-23 15:10 | 42.34464 | 12.45735 | 31121 ft | 454 kts | 127° |
| 2026-04-23 15:10 | 42.29485 | 12.53117 | 31119 ft | 454 kts | 127° |
| 2026-04-23 15:11 | 42.25252 | 12.59378 | 31126 ft | 454 kts | 127° |
| 2026-04-23 15:11 | 42.20968 | 12.65671 | 31120 ft | 454 kts | 127° |
| 2026-04-23 15:12 | 42.16704 | 12.71911 | 31116 ft | 454 kts | 127° |
| 2026-04-23 15:12 | 42.12408 | 12.78187 | 31108 ft | 454 kts | 127° |
| 2026-04-23 15:13 | 42.08147 | 12.84404 | 31110 ft | 454 kts | 127° |
| 2026-04-23 15:13 | 42.03843 | 12.90672 | 31120 ft | 454 kts | 127° |
| 2026-04-23 15:14 | 41.99578 | 12.96879 | 31111 ft | 455 kts | 127° |
| 2026-04-23 15:14 | 41.95274 | 13.03145 | 31106 ft | 457 kts | 127° |
| 2026-04-23 15:15 | 41.90948 | 13.09429 | 31107 ft | 458 kts | 127° |
| 2026-04-23 15:15 | 41.86645 | 13.15707 | 31115 ft | 458 kts | 127° |
| 2026-04-23 15:16 | 41.82325 | 13.22016 | 31107 ft | 458 kts | 127° |
| 2026-04-23 15:16 | 41.78017 | 13.28263 | 31103 ft | 457 kts | 127° |
| 2026-04-23 15:17 | 41.73686 | 13.34528 | 31109 ft | 457 kts | 127° |
| 2026-04-23 15:17 | 41.69365 | 13.40741 | 31101 ft | 457 kts | 128° |
| 2026-04-23 15:18 | 41.65009 | 13.46974 | 31102 ft | 457 kts | 128° |
| 2026-04-23 15:18 | 41.60686 | 13.53154 | 31101 ft | 458 kts | 128° |
| 2026-04-23 15:19 | 41.56323 | 13.59379 | 31105 ft | 458 kts | 128° |
| 2026-04-23 15:19 | 41.51949 | 13.65608 | 31110 ft | 458 kts | 128° |
| 2026-04-23 15:20 | 41.48322 | 13.70765 | 31109 ft | 458 kts | 128° |
| 2026-04-23 15:20 | 41.43959 | 13.76955 | 31110 ft | 458 kts | 128° |
| 2026-04-23 15:21 | 41.38866 | 13.84165 | 31115 ft | 459 kts | 128° |
| 2026-04-23 15:21 | 41.34488 | 13.90351 | 31110 ft | 460 kts | 128° |
| 2026-04-23 15:22 | 41.29825 | 13.96195 | 31112 ft | 468 kts | 139° |
| 2026-04-23 15:22 | 41.25034 | 13.99703 | 31110 ft | 479 kts | 153° |
| 2026-04-23 15:23 | 41.19211 | 14.02646 | 31106 ft | 481 kts | 155° |
| 2026-04-23 15:23 | 41.12937 | 14.05740 | 31099 ft | 481 kts | 155° |
| 2026-04-23 15:24 | 41.06661 | 14.08906 | 31102 ft | 481 kts | 155° |
| 2026-04-23 15:24 | 41.00405 | 14.12101 | 31098 ft | 482 kts | 155° |
| 2026-04-23 15:25 | 40.94144 | 14.15297 | 31098 ft | 483 kts | 155° |
| 2026-04-23 15:25 | 40.87883 | 14.18484 | 31110 ft | 484 kts | 155° |
| 2026-04-23 15:26 | 40.81573 | 14.21688 | 31097 ft | 485 kts | 155° |
| 2026-04-23 15:26 | 40.75264 | 14.24885 | 31104 ft | 486 kts | 155° |
| 2026-04-23 15:27 | 40.69002 | 14.28052 | 31104 ft | 486 kts | 155° |
| 2026-04-23 15:27 | 40.62631 | 14.31267 | 31100 ft | 487 kts | 156° |
| 2026-04-23 15:28 | 40.56651 | 14.35255 | 31105 ft | 480 kts | 141° |
| 2026-04-23 15:28 | 40.51612 | 14.40888 | 31103 ft | 478 kts | 134° |
| 2026-04-23 15:29 | 40.46677 | 14.46710 | 31102 ft | 478 kts | 135° |
| 2026-04-23 15:29 | 40.41690 | 14.52501 | 31101 ft | 479 kts | 135° |
| 2026-04-23 15:30 | 40.36665 | 14.58263 | 31101 ft | 479 kts | 135° |
| 2026-04-23 15:30 | 40.31654 | 14.63989 | 31102 ft | 479 kts | 135° |
| 2026-04-23 15:31 | 40.26626 | 14.69726 | 31101 ft | 479 kts | 135° |
| 2026-04-23 15:31 | 40.21601 | 14.75453 | 31101 ft | 479 kts | 135° |
| 2026-04-23 15:32 | 40.16580 | 14.81164 | 31103 ft | 478 kts | 135° |
| 2026-04-23 15:32 | 40.11553 | 14.86863 | 31102 ft | 479 kts | 135° |
| 2026-04-23 15:33 | 40.06520 | 14.92553 | 31105 ft | 478 kts | 135° |
| 2026-04-23 15:33 | 40.01478 | 14.98248 | 31102 ft | 478 kts | 136° |
| 2026-04-23 15:34 | 39.96461 | 15.03904 | 31096 ft | 478 kts | 136° |
| 2026-04-23 15:34 | 39.91350 | 15.09656 | 31108 ft | 491 kts | 138° |
| 2026-04-23 15:35 | 39.86174 | 15.15466 | 31099 ft | 493 kts | 138° |
| 2026-04-23 15:35 | 39.80994 | 15.21266 | 31089 ft | 491 kts | 138° |
| 2026-04-23 15:36 | 39.75811 | 15.27063 | 31085 ft | 490 kts | 138° |
| 2026-04-23 15:36 | 39.70652 | 15.32821 | 31081 ft | 489 kts | 138° |
| 2026-04-23 15:37 | 39.65511 | 15.38563 | 31082 ft | 489 kts | 138° |
| 2026-04-23 15:37 | 39.60330 | 15.44350 | 31077 ft | 489 kts | 138° |
| 2026-04-23 15:38 | 39.55185 | 15.50085 | 31077 ft | 488 kts | 138° |
| 2026-04-23 15:38 | 39.50034 | 15.55814 | 31066 ft | 489 kts | 138° |
| 2026-04-23 15:39 | 39.44875 | 15.61539 | 31068 ft | 490 kts | 139° |
| 2026-04-23 15:39 | 39.39694 | 15.67277 | 31070 ft | 491 kts | 139° |
| 2026-04-23 15:40 | 39.34510 | 15.73008 | 31064 ft | 492 kts | 139° |
| 2026-04-23 15:40 | 39.29286 | 15.78770 | 31052 ft | 493 kts | 139° |
| 2026-04-23 15:41 | 39.24193 | 15.84687 | 31008 ft | 491 kts | 136° |
| 2026-04-23 15:41 | 39.21801 | 15.87683 | 30558 ft | 481 kts | 135° |
| 2026-04-23 15:41 | 39.19411 | 15.90717 | 29649 ft | 482 kts | 135° |
| 2026-04-23 15:41 | 39.17017 | 15.93749 | 28504 ft | 485 kts | 135° |
| 2026-04-23 15:42 | 39.14588 | 15.96800 | 27225 ft | 490 kts | 136° |
| 2026-04-23 15:42 | 39.12121 | 15.99872 | 25935 ft | 494 kts | 136° |
| 2026-04-23 15:42 | 39.09642 | 16.02940 | 24723 ft | 494 kts | 137° |
| 2026-04-23 15:42 | 39.07172 | 16.05987 | 23738 ft | 489 kts | 137° |
| 2026-04-23 15:43 | 39.04732 | 16.08993 | 22802 ft | 481 kts | 137° |
| 2026-04-23 15:43 | 39.02332 | 16.11948 | 21915 ft | 474 kts | 137° |
| 2026-04-23 15:43 | 38.99964 | 16.14863 | 21047 ft | 467 kts | 137° |
| 2026-04-23 15:43 | 38.97657 | 16.17701 | 20177 ft | 460 kts | 137° |
| 2026-04-23 15:44 | 38.95352 | 16.20535 | 19281 ft | 454 kts | 137° |
| 2026-04-23 15:44 | 38.93076 | 16.23327 | 18410 ft | 447 kts | 137° |
| 2026-04-23 15:44 | 38.91029 | 16.26298 | 17519 ft | 442 kts | 123° |
| 2026-04-23 15:44 | 38.89729 | 16.29829 | 16655 ft | 435 kts | 105° |
| 2026-04-23 15:45 | 38.89018 | 16.33512 | 15850 ft | 427 kts | 102° |
| 2026-04-23 15:45 | 38.88371 | 16.37214 | 14980 ft | 421 kts | 101° |
| 2026-04-23 15:45 | 38.87739 | 16.40855 | 14086 ft | 416 kts | 101° |
| 2026-04-23 15:45 | 38.87105 | 16.44453 | 13234 ft | 411 kts | 101° |
| 2026-04-23 15:46 | 38.86465 | 16.47991 | 12625 ft | 400 kts | 101° |
| 2026-04-23 15:46 | 38.85839 | 16.51385 | 12424 ft | 379 kts | 101° |
| 2026-04-23 15:46 | 38.85244 | 16.54592 | 12295 ft | 360 kts | 101° |
| 2026-04-23 15:46 | 38.84690 | 16.57566 | 12184 ft | 343 kts | 101° |
| 2026-04-23 15:47 | 38.84147 | 16.60476 | 12071 ft | 328 kts | 101° |
| 2026-04-23 15:47 | 38.83628 | 16.63252 | 11966 ft | 313 kts | 101° |
| 2026-04-23 15:47 | 38.83136 | 16.65883 | 11874 ft | 300 kts | 101° |
| 2026-04-23 15:47 | 38.82654 | 16.68460 | 11619 ft | 295 kts | 101° |
| 2026-04-23 15:48 | 38.82179 | 16.71001 | 11247 ft | 293 kts | 101° |
| 2026-04-23 15:48 | 38.81704 | 16.73539 | 10878 ft | 291 kts | 101° |
| 2026-04-23 15:48 | 38.81231 | 16.76056 | 10527 ft | 289 kts | 101° |
| 2026-04-23 15:48 | 38.80760 | 16.78561 | 10147 ft | 288 kts | 101° |
| 2026-04-23 15:49 | 38.80292 | 16.81048 | 9782 ft | 286 kts | 101° |
| 2026-04-23 15:49 | 38.79831 | 16.83491 | 9448 ft | 284 kts | 101° |
| 2026-04-23 15:49 | 38.79365 | 16.85942 | 9100 ft | 282 kts | 101° |
| 2026-04-23 15:49 | 38.78905 | 16.88375 | 8743 ft | 281 kts | 101° |
| 2026-04-23 15:50 | 38.78468 | 16.90803 | 8401 ft | 277 kts | 94° |
| 2026-04-23 15:50 | 38.78590 | 16.93219 | 8038 ft | 269 kts | 75° |
| 2026-04-23 15:50 | 38.78963 | 16.95558 | 7707 ft | 267 kts | 75° |
| 2026-04-23 15:50 | 38.79340 | 16.97892 | 7359 ft | 265 kts | 75° |
| 2026-04-23 15:51 | 38.79701 | 17.00171 | 7017 ft | 264 kts | 75° |
| 2026-04-23 15:51 | 38.80058 | 17.02464 | 6801 ft | 257 kts | 75° |
| 2026-04-23 15:51 | 38.80395 | 17.04660 | 6716 ft | 245 kts | 75° |
| 2026-04-23 15:51 | 38.80717 | 17.06761 | 6610 ft | 235 kts | 75° |
| 2026-04-23 15:52 | 38.81052 | 17.08766 | 6512 ft | 223 kts | 65° |
| 2026-04-23 15:52 | 38.81888 | 17.10306 | 6395 ft | 205 kts | 35° |
| 2026-04-23 15:52 | 38.83121 | 17.11119 | 6193 ft | 197 kts | 13° |
| 2026-04-23 15:52 | 38.84475 | 17.11305 | 5929 ft | 196 kts | 1° |
| 2026-04-23 15:53 | 38.85835 | 17.11355 | 5652 ft | 195 kts | 1° |
| 2026-04-23 15:53 | 38.87168 | 17.11261 | 5410 ft | 194 kts | 351° |
| 2026-04-23 15:53 | 38.88487 | 17.10928 | 5204 ft | 192 kts | 349° |
| 2026-04-23 15:53 | 38.89792 | 17.10572 | 4962 ft | 191 kts | 349° |
| 2026-04-23 15:54 | 38.91086 | 17.10224 | 4740 ft | 190 kts | 349° |
| 2026-04-23 15:54 | 38.92377 | 17.09884 | 4558 ft | 189 kts | 350° |
| 2026-04-23 15:54 | 38.93650 | 17.09556 | 4360 ft | 185 kts | 350° |
| 2026-04-23 15:54 | 38.94918 | 17.09234 | 4150 ft | 185 kts | 350° |
| 2026-04-23 15:55 | 38.96183 | 17.08913 | 3924 ft | 184 kts | 350° |
| 2026-04-23 15:55 | 38.97429 | 17.08598 | 3735 ft | 182 kts | 350° |
| 2026-04-23 15:55 | 38.98672 | 17.08287 | 3502 ft | 182 kts | 350° |
| 2026-04-23 15:55 | 38.99914 | 17.07978 | 3286 ft | 181 kts | 350° |
| 2026-04-23 15:56 | 39.01146 | 17.07674 | 3118 ft | 180 kts | 350° |
| 2026-04-23 15:56 | 39.02371 | 17.07370 | 3074 ft | 178 kts | 350° |
| 2026-04-23 15:56 | 39.03579 | 17.07130 | 2977 ft | 178 kts | 3° |
| 2026-04-23 15:56 | 39.04662 | 17.08025 | 2122 ft | 217 kts | 62° |
| 2026-04-23 15:57 | 39.04586 | 17.09948 | 2079 ft | 218 kts | 117° |
| 2026-04-23 15:57 | 39.03499 | 17.11180 | 2182 ft | 215 kts | 151° |
| 2026-04-23 15:57 | 39.02024 | 17.11736 | 2123 ft | 223 kts | 172° |
| 2026-04-23 15:57 | 39.00449 | 17.11871 | 1853 ft | 229 kts | 178° |
| 2026-04-23 15:58 | 38.98895 | 17.11953 | 1639 ft | 214 kts | 176° |
| 2026-04-23 15:58 | 38.97473 | 17.12132 | 1290 ft | 203 kts | 173° |
| 2026-04-23 15:58 | 38.96205 | 17.12332 | 1318 ft | 165 kts | 172° |
| 2026-04-23 15:58 | 38.95161 | 17.12206 | 1205 ft | 144 kts | 207° |
| 2026-04-23 15:59 | 38.94474 | 17.11363 | 1133 ft | 134 kts | 249° |
| 2026-04-23 15:59 | 38.94356 | 17.10240 | 1169 ft | 124 kts | 289° |
| 2026-04-23 15:59 | 38.94789 | 17.09351 | 1189 ft | 120 kts | 332° |
| 2026-04-23 15:59 | 38.95601 | 17.08991 | 1096 ft | 132 kts | 0° |
| 2026-04-23 16:00 | 38.96526 | 17.08827 | 946 ft | 128 kts | 347° |
| 2026-04-23 16:00 | 38.97364 | 17.08602 | 771 ft | 119 kts | 349° |
| 2026-04-23 16:00 | 38.98188 | 17.08400 | 643 ft | 122 kts | 349° |
| 2026-04-23 16:00 | 38.99017 | 17.08196 | 538 ft | 118 kts | 349° |
| 2026-04-23 16:01 | 38.99756 | 17.08015 | 522 ft | 89 kts | 349° |
| 2026-04-23 16:01 | 39.00189 | 17.07918 | 528 ft | 21 kts | 357° |
| 2026-04-23 16:01 | 39.00252 | 17.07895 | 528 ft | 7 kts | 276° |
| 2026-04-23 16:01 | 39.00211 | 17.07883 | 529 ft | 9 kts | 165° |
| 2026-04-23 16:02 | 39.00128 | 17.07910 | 528 ft | 16 kts | 166° |
| 2026-04-23 16:02 | 38.99990 | 17.07950 | 526 ft | 24 kts | 169° |
| 2026-04-23 16:02 | 38.99802 | 17.07997 | 523 ft | 31 kts | 169° |
| 2026-04-23 16:02 | 38.99644 | 17.07911 | 525 ft | 25 kts | 245° |
| 2026-04-23 16:03 | 38.99565 | 17.07849 | 525 ft | 13 kts | 172° |
| 2026-04-23 16:03 | 38.99543 | 17.07829 | 526 ft | 3 kts | 268° |
| 2026-04-23 16:03 | 38.99557 | 17.07792 | 526 ft | 4 kts | 302° |
| 2026-04-23 16:03 | 38.99563 | 17.07781 | 527 ft | 0 kts | 306° |